createdAt,value
2018-11-29T00:00:37.182Z,7.13
2018-11-29T00:03:07.107Z,6.30
2018-11-29T00:05:36.523Z,7.40
2018-11-29T00:08:05.718Z,13.80
2018-11-29T00:10:34.980Z,15.87
2018-11-29T00:13:04.180Z,8.43
2018-11-29T00:15:33.259Z,7.53
2018-11-29T00:18:02.576Z,8.77
2018-11-29T00:20:31.804Z,9.30
2018-11-29T00:23:00.951Z,7.70
2018-11-29T00:25:30.151Z,8.90
2018-11-29T00:27:59.343Z,8.50
2018-11-29T00:30:28.548Z,9.27
2018-11-29T00:32:57.883Z,8.20
2018-11-29T00:35:27.017Z,8.40
2018-11-29T00:37:56.184Z,7.10
2018-11-29T00:40:25.605Z,6.40
2018-11-29T00:42:54.784Z,7.37
2018-11-29T00:45:24.699Z,11.53
2018-11-29T00:47:54.122Z,9.10
2018-11-29T00:50:23.513Z,8.03
2018-11-29T00:52:52.732Z,6.90
2018-11-29T00:55:23.736Z,6.67
2018-11-29T00:57:53.173Z,8.43
2018-11-29T01:00:24.035Z,5.53
2018-11-29T01:02:53.274Z,4.97
2018-11-29T01:05:22.523Z,5.30
2018-11-29T01:07:51.859Z,6.13
2018-11-29T01:10:20.910Z,4.80
2018-11-29T01:12:50.734Z,6.27
2018-11-29T01:15:20.917Z,5.40
2018-11-29T01:17:50.504Z,6.87
2018-11-29T01:20:21.626Z,6.63
2018-11-29T01:22:50.861Z,5.43
2018-11-29T01:25:19.951Z,5.53
2018-11-29T01:27:49.983Z,5.30
2018-11-29T01:30:20.727Z,7.80
2018-11-29T01:32:50.071Z,6.03
2018-11-29T01:35:20.123Z,6.30
2018-11-29T01:37:49.722Z,7.60
2018-11-29T01:40:20.403Z,6.50
2018-11-29T01:42:59.267Z,6.27
2018-11-29T01:45:28.554Z,6.37
2018-11-29T01:47:57.558Z,7.10
2018-11-29T01:50:26.848Z,6.70
2018-11-29T01:52:56.159Z,6.60
2018-11-29T01:55:25.359Z,10.67
2018-11-29T01:57:54.546Z,6.50
2018-11-29T02:00:23.851Z,7.47
2018-11-29T02:02:53.407Z,7.00
2018-11-29T02:05:22.820Z,7.13
2018-11-29T02:07:51.813Z,6.70
2018-11-29T02:10:26.136Z,6.67
2018-11-29T02:12:55.528Z,8.37
2018-11-29T02:15:24.466Z,7.33
2018-11-29T02:17:53.313Z,8.30
2018-11-29T02:20:22.611Z,7.00
2018-11-29T02:22:51.899Z,6.33
2018-11-29T02:25:21.248Z,8.17
2018-11-29T02:27:50.347Z,7.53
2018-11-29T02:30:22.273Z,7.77
2018-11-29T02:32:51.614Z,7.80
2018-11-29T02:35:20.834Z,4.83
2018-11-29T02:37:49.866Z,5.17
2018-11-29T02:40:19.259Z,4.40
2018-11-29T02:42:49.949Z,4.90
2018-11-29T02:45:23.842Z,4.80
2018-11-29T02:47:53.124Z,4.60
2018-11-29T02:50:22.095Z,4.40
2018-11-29T02:52:51.436Z,4.20
2018-11-29T02:55:20.410Z,4.80
2018-11-29T02:57:49.535Z,4.00
2018-11-29T03:00:19.770Z,4.03
2018-11-29T03:02:49.845Z,3.43
2018-11-29T03:05:19.359Z,2.93
2018-11-29T03:07:48.694Z,3.57
2018-11-29T03:10:22.835Z,2.80
2018-11-29T03:12:51.748Z,3.20
2018-11-29T03:15:20.700Z,3.07
2018-11-29T03:17:49.773Z,3.10
2018-11-29T03:20:18.946Z,2.80
2018-11-29T03:22:48.235Z,3.63
2018-11-29T03:25:17.678Z,3.20
2018-11-29T03:27:47.039Z,3.50
2018-11-29T03:30:17.588Z,2.83
2018-11-29T03:32:46.692Z,3.40
2018-11-29T03:35:15.998Z,3.30
2018-11-29T03:37:45.228Z,4.47
2018-11-29T03:40:16.163Z,3.53
2018-11-29T03:42:45.758Z,5.17
2018-11-29T03:45:15.863Z,5.20
2018-11-29T03:47:45.507Z,3.90
2018-11-29T03:50:18.435Z,4.67
2018-11-29T03:52:47.948Z,4.90
2018-11-29T03:55:17.212Z,4.93
2018-11-29T03:57:46.523Z,7.30
2018-11-29T04:00:16.762Z,4.83
2018-11-29T04:02:47.647Z,4.93
2018-11-29T04:05:17.087Z,8.43
2018-11-29T04:07:46.294Z,10.30
2018-11-29T04:10:17.124Z,7.60
2018-11-29T04:12:46.421Z,5.97
2018-11-29T04:15:16.303Z,5.70
2018-11-29T04:17:45.784Z,5.60
2018-11-29T04:20:16.050Z,4.47
2018-11-29T04:22:45.273Z,4.40
2018-11-29T04:25:15.269Z,4.03
2018-11-29T04:27:44.486Z,4.57
2018-11-29T04:30:15.309Z,4.00
2018-11-29T04:32:44.804Z,4.43
2018-11-29T04:35:14.418Z,5.53
2018-11-29T04:37:43.365Z,5.90
2018-11-29T04:40:13.615Z,6.33
2018-11-29T04:42:42.927Z,8.17
2018-11-29T04:45:13.103Z,8.17
2018-11-29T04:47:42.036Z,5.40
2018-11-29T04:50:11.211Z,5.73
2018-11-29T04:52:40.375Z,6.97
2018-11-29T04:55:10.640Z,8.83
2018-11-29T04:57:39.614Z,6.43
2018-11-29T05:00:12.708Z,5.63
2018-11-29T05:02:42.048Z,7.43
2018-11-29T05:05:11.626Z,8.93
2018-11-29T05:07:40.621Z,11.50
2018-11-29T05:10:11.159Z,12.77
2018-11-29T05:12:40.447Z,12.40
2018-11-29T05:15:10.882Z,8.77
2018-11-29T05:17:39.726Z,8.73
2018-11-29T05:20:09.316Z,9.60
2018-11-29T05:22:38.676Z,11.30
2018-11-29T05:25:08.992Z,8.60
2018-11-29T05:27:38.443Z,8.37
2018-11-29T05:30:11.040Z,8.43
2018-11-29T05:32:40.396Z,9.53
2018-11-29T05:35:10.839Z,11.73
2018-11-29T05:37:40.116Z,12.27
2018-11-29T05:40:11.003Z,13.77
2018-11-29T05:42:40.343Z,11.90
2018-11-29T05:45:10.274Z,12.00
2018-11-29T05:47:39.538Z,15.13
2018-11-29T05:50:10.594Z,18.13
2018-11-29T05:52:40.010Z,19.07
2018-11-29T05:55:10.715Z,17.57
2018-11-29T05:57:40.027Z,22.50
2018-11-29T06:00:11.835Z,20.60
2018-11-29T06:02:40.682Z,22.77
2018-11-29T06:05:10.876Z,26.20
2018-11-29T06:07:40.063Z,38.70
2018-11-29T06:10:09.241Z,63.57
2018-11-29T06:12:38.293Z,57.10
2018-11-29T06:15:08.892Z,43.63
2018-11-29T06:17:38.171Z,66.77
2018-11-29T06:20:09.812Z,70.90
2018-11-29T06:22:39.128Z,22.00
2018-11-29T06:25:08.437Z,34.47
2018-11-29T06:27:37.771Z,21.80
2018-11-29T06:30:19.686Z,24.13
2018-11-29T06:32:49.247Z,30.53
2018-11-29T06:35:18.475Z,22.33
2018-11-29T06:37:48.182Z,19.83
2018-11-29T06:40:18.009Z,30.97
2018-11-29T06:42:47.215Z,18.07
2018-11-29T06:45:19.477Z,19.53
2018-11-29T06:47:49.371Z,20.73
2018-11-29T06:50:18.605Z,21.10
2018-11-29T06:52:48.780Z,20.23
2018-11-29T06:55:20.843Z,26.57
2018-11-29T06:57:50.260Z,31.93
2018-11-29T07:00:36.518Z,30.97
2018-11-29T07:03:06.227Z,18.70
2018-11-29T07:05:35.421Z,21.53
2018-11-29T07:08:04.700Z,23.60
2018-11-29T07:10:34.487Z,21.50
2018-11-29T07:13:04.872Z,19.23
2018-11-29T07:15:33.855Z,17.07
2018-11-29T07:18:03.178Z,19.00
2018-11-29T07:20:32.367Z,23.27
2018-11-29T07:23:01.380Z,41.67
2018-11-29T07:25:30.668Z,42.47
2018-11-29T07:27:59.910Z,39.50
2018-11-29T07:30:29.212Z,16.87
2018-11-29T07:32:58.188Z,21.30
2018-11-29T07:35:27.518Z,27.47
2018-11-29T07:37:56.687Z,17.03
2018-11-29T07:40:26.024Z,12.10
2018-11-29T07:42:55.711Z,18.27
2018-11-29T07:45:25.131Z,14.80
2018-11-29T07:47:54.402Z,19.50
2018-11-29T07:50:23.997Z,14.87
2018-11-29T07:52:53.297Z,32.57
2018-11-29T07:55:23.039Z,37.33
2018-11-29T07:57:53.325Z,26.80
2018-11-29T08:00:22.506Z,24.20
2018-11-29T08:02:51.806Z,28.47
2018-11-29T08:05:21.103Z,23.67
2018-11-29T08:07:50.455Z,41.87
2018-11-29T08:10:20.538Z,39.73
2018-11-29T08:12:49.715Z,126.63
2018-11-29T08:15:20.047Z,68.33
2018-11-29T08:17:49.346Z,45.93
2018-11-29T08:20:19.641Z,65.90
2018-11-29T08:22:48.925Z,49.07
2018-11-29T08:25:18.270Z,56.80
2018-11-29T08:27:47.117Z,42.37
2018-11-29T08:30:16.851Z,47.53
2018-11-29T08:32:46.007Z,70.97
2018-11-29T08:35:15.747Z,48.27
2018-11-29T08:37:46.565Z,28.33
2018-11-29T08:40:17.155Z,15.57
2018-11-29T08:42:46.540Z,18.30
2018-11-29T08:45:15.687Z,11.97
2018-11-29T08:47:44.859Z,13.87
2018-11-29T08:50:14.639Z,10.83
2018-11-29T08:52:45.418Z,13.13
2018-11-29T08:55:17.395Z,9.70
2018-11-29T08:57:47.155Z,17.30
2018-11-29T09:00:18.003Z,14.13
2018-11-29T09:02:47.051Z,16.13
2018-11-29T09:05:16.372Z,9.00
2018-11-29T09:07:46.531Z,16.03
2018-11-29T09:10:17.751Z,9.37
2018-11-29T09:12:46.935Z,10.77
2018-11-29T09:15:16.888Z,13.40
2018-11-29T09:17:45.919Z,10.40
2018-11-29T09:20:19.144Z,11.93
2018-11-29T09:22:48.051Z,12.00
2018-11-29T09:25:18.051Z,17.60
2018-11-29T09:27:47.031Z,24.43
2018-11-29T09:30:19.040Z,28.87
2018-11-29T09:32:49.164Z,17.67
2018-11-29T09:35:18.347Z,19.20
2018-11-29T09:37:47.644Z,13.43
2018-11-29T09:40:18.243Z,13.97
2018-11-29T09:42:47.645Z,11.67
2018-11-29T09:45:19.669Z,44.53
2018-11-29T09:47:49.974Z,15.93
2018-11-29T09:50:19.119Z,10.67
2018-11-29T09:52:48.119Z,12.67
2018-11-29T09:55:18.129Z,18.27
2018-11-29T09:57:47.847Z,11.43
2018-11-29T10:00:27.201Z,11.23
2018-11-29T10:02:52.030Z,10.27
2018-11-29T10:05:21.285Z,13.07
2018-11-29T10:07:50.664Z,20.77
2018-11-29T10:10:19.915Z,10.70
2018-11-29T10:12:49.394Z,15.07
2018-11-29T10:15:18.549Z,13.30
2018-11-29T10:17:47.715Z,12.10
2018-11-29T10:20:16.791Z,20.27
2018-11-29T10:22:46.046Z,10.77
2018-11-29T10:25:15.715Z,22.93
2018-11-29T10:27:50.899Z,9.33
2018-11-29T10:30:25.553Z,28.60
2018-11-29T10:32:54.963Z,17.03
2018-11-29T10:35:23.887Z,18.03
2018-11-29T10:37:53.209Z,11.90
2018-11-29T10:40:22.559Z,16.13
2018-11-29T10:42:52.028Z,22.23
2018-11-29T10:45:21.611Z,13.93
2018-11-29T10:47:52.782Z,11.40
2018-11-29T10:50:21.283Z,15.37
2018-11-29T10:52:50.656Z,7.70
2018-11-29T10:55:20.315Z,12.37
2018-11-29T10:57:49.555Z,18.40
2018-11-29T11:00:28.497Z,17.80
2018-11-29T11:03:04.595Z,16.70
2018-11-29T11:05:33.756Z,16.70
2018-11-29T11:08:08.026Z,10.53
2018-11-29T11:10:32.314Z,15.90
2018-11-29T11:13:01.539Z,20.20
2018-11-29T11:15:30.747Z,12.20
2018-11-29T11:17:59.778Z,12.03
2018-11-29T11:20:28.896Z,15.10
2018-11-29T11:22:58.067Z,12.57
2018-11-29T11:25:27.117Z,10.20
2018-11-29T11:27:56.342Z,9.93
2018-11-29T11:30:25.364Z,9.60
2018-11-29T11:32:54.250Z,13.47
2018-11-29T11:35:23.388Z,33.53
2018-11-29T11:37:52.576Z,19.07
2018-11-29T11:40:21.599Z,9.17
2018-11-29T11:42:50.759Z,12.77
2018-11-29T11:45:20.723Z,21.00
2018-11-29T11:47:49.756Z,12.47
2018-11-29T11:50:23.667Z,14.30
2018-11-29T11:52:53.278Z,9.73
2018-11-29T11:55:22.312Z,10.33
2018-11-29T11:57:51.613Z,11.10
2018-11-29T12:00:23.524Z,14.00
2018-11-29T12:03:09.951Z,11.73
2018-11-29T12:05:39.250Z,20.20
2018-11-29T12:08:08.660Z,11.77
2018-11-29T12:10:38.150Z,10.60
2018-11-29T12:13:08.162Z,15.43
2018-11-29T12:15:37.979Z,12.90
2018-11-29T12:18:08.918Z,12.63
2018-11-29T12:20:37.954Z,11.37
2018-11-29T12:23:07.878Z,17.43
2018-11-29T12:25:37.066Z,13.40
2018-11-29T12:28:06.059Z,16.57
2018-11-29T12:30:36.896Z,22.97
2018-11-29T12:33:07.381Z,19.60
2018-11-29T12:35:36.673Z,14.57
2018-11-29T12:38:05.995Z,14.70
2018-11-29T12:40:35.384Z,20.83
2018-11-29T12:43:04.659Z,27.67
2018-11-29T12:45:33.814Z,30.90
2018-11-29T12:48:03.175Z,29.93
2018-11-29T12:50:32.414Z,29.17
2018-11-29T12:53:01.587Z,30.47
2018-11-29T12:55:30.933Z,28.20
2018-11-29T12:58:05.236Z,12.07
2018-11-29T13:00:29.585Z,33.90
2018-11-29T13:02:59.651Z,24.43
2018-11-29T13:05:29.544Z,19.83
2018-11-29T13:07:58.807Z,9.57
2018-11-29T13:10:28.447Z,10.83
2018-11-29T13:12:57.367Z,34.07
2018-11-29T13:15:32.714Z,45.97
2018-11-29T13:18:04.031Z,72.97
2018-11-29T13:20:33.327Z,29.80
2018-11-29T13:23:02.531Z,37.23
2018-11-29T13:25:31.466Z,36.07
2018-11-29T13:28:00.886Z,43.87
2018-11-29T13:30:30.087Z,41.97
2018-11-29T13:32:59.325Z,23.23
2018-11-29T13:35:32.543Z,24.07
2018-11-29T13:38:07.596Z,18.60
2018-11-29T13:40:36.784Z,19.10
2018-11-29T13:43:05.811Z,18.33
2018-11-29T13:45:35.244Z,31.53
2018-11-29T13:48:04.452Z,46.93
2018-11-29T13:50:33.740Z,38.17
2018-11-29T13:53:03.093Z,39.80
2018-11-29T13:55:32.376Z,21.30
2018-11-29T13:58:01.689Z,13.77
2018-11-29T14:00:31.077Z,21.97
2018-11-29T14:03:06.508Z,19.07
2018-11-29T14:05:36.235Z,15.43
2018-11-29T14:08:06.084Z,19.37
2018-11-29T14:10:35.344Z,18.40
2018-11-29T14:13:04.579Z,16.53
2018-11-29T14:15:33.650Z,18.73
2018-11-29T14:18:03.018Z,23.07
2018-11-29T14:20:35.410Z,32.73
2018-11-29T14:23:01.636Z,38.17
2018-11-29T14:25:30.832Z,17.40
2018-11-29T14:27:59.840Z,15.60
2018-11-29T14:30:30.115Z,16.33
2018-11-29T14:33:00.489Z,14.03
2018-11-29T14:35:29.815Z,12.10
2018-11-29T14:37:59.173Z,20.50
2018-11-29T14:40:29.860Z,16.37
2018-11-29T14:42:59.112Z,17.67
2018-11-29T14:45:28.620Z,16.80
2018-11-29T14:47:57.886Z,17.63
2018-11-29T14:50:34.870Z,17.17
2018-11-29T14:53:04.112Z,21.93
2018-11-29T14:55:33.296Z,20.83
2018-11-29T14:58:02.225Z,29.27
2018-11-29T15:00:31.364Z,21.73
2018-11-29T15:03:01.568Z,19.67
2018-11-29T15:05:32.015Z,28.43
2018-11-29T15:08:01.117Z,52.13
2018-11-29T15:10:30.357Z,31.10
2018-11-29T15:12:59.703Z,18.60
2018-11-29T15:15:28.579Z,17.13
2018-11-29T15:17:57.679Z,22.97
2018-11-29T15:20:29.652Z,29.53
2018-11-29T15:22:58.733Z,37.73
2018-11-29T15:25:27.852Z,21.80
2018-11-29T15:27:56.844Z,17.67
2018-11-29T15:30:26.035Z,22.90
2018-11-29T15:32:54.884Z,38.23
2018-11-29T15:35:24.062Z,28.07
2018-11-29T15:37:53.308Z,31.43
2018-11-29T15:40:22.560Z,27.60
2018-11-29T15:42:51.825Z,38.60
2018-11-29T15:45:22.119Z,37.10
2018-11-29T15:47:51.432Z,41.03
2018-11-29T15:50:20.403Z,44.23
2018-11-29T15:52:49.624Z,54.23
2018-11-29T15:55:19.763Z,48.20
2018-11-29T15:57:49.658Z,59.63
2018-11-29T16:00:25.922Z,39.93
2018-11-29T16:02:55.936Z,40.00
2018-11-29T16:05:25.015Z,33.40
2018-11-29T16:07:54.282Z,35.23
2018-11-29T16:10:24.083Z,35.87
2018-11-29T16:12:53.404Z,39.67
2018-11-29T16:15:22.845Z,32.47
2018-11-29T16:17:52.844Z,34.80
2018-11-29T16:20:27.636Z,35.03
2018-11-29T16:22:56.937Z,41.17
2018-11-29T16:25:26.075Z,44.50
2018-11-29T16:27:55.372Z,62.67
2018-11-29T16:30:26.619Z,49.70
2018-11-29T16:32:56.603Z,36.60
2018-11-29T16:35:25.749Z,32.30
2018-11-29T16:37:54.832Z,30.53
2018-11-29T16:40:23.807Z,28.10
2018-11-29T16:42:53.065Z,26.57
2018-11-29T16:45:22.564Z,22.47
2018-11-29T16:47:51.772Z,39.67
2018-11-29T16:50:21.887Z,30.93
2018-11-29T16:52:51.299Z,26.93
2018-11-29T16:55:20.500Z,24.57
2018-11-29T16:57:51.447Z,28.17
2018-11-29T17:00:22.056Z,25.10
2018-11-29T17:02:51.164Z,30.73
2018-11-29T17:05:20.516Z,30.13
2018-11-29T17:07:49.667Z,37.50
2018-11-29T17:10:20.179Z,38.57
2018-11-29T17:12:51.706Z,40.20
2018-11-29T17:15:21.256Z,32.47
2018-11-29T17:17:50.135Z,29.03
2018-11-29T17:20:20.419Z,35.33
2018-11-29T17:22:50.685Z,22.63
2018-11-29T17:25:19.860Z,16.13
2018-11-29T17:27:49.667Z,30.47
2018-11-29T17:30:21.641Z,30.40
2018-11-29T17:32:55.293Z,24.87
2018-11-29T17:35:24.602Z,33.23
2018-11-29T17:37:54.847Z,39.73
2018-11-29T17:40:24.800Z,18.00
2018-11-29T17:42:55.029Z,26.53
2018-11-29T17:45:25.608Z,25.70
2018-11-29T17:47:56.236Z,23.57
2018-11-29T17:50:27.716Z,18.60
2018-11-29T17:52:57.171Z,18.57
2018-11-29T17:55:26.928Z,23.77
2018-11-29T17:57:56.221Z,14.60
2018-11-29T18:00:26.856Z,15.60
2018-11-29T18:02:56.175Z,17.03
2018-11-29T18:05:26.903Z,14.73
2018-11-29T18:07:56.004Z,13.50
2018-11-29T18:10:27.256Z,20.43
2018-11-29T18:13:02.972Z,15.90
2018-11-29T18:15:33.742Z,25.97
2018-11-29T18:18:03.890Z,17.53
2018-11-29T18:20:33.375Z,16.70
2018-11-29T18:23:02.631Z,18.93
2018-11-29T18:25:32.759Z,78.07
2018-11-29T18:28:01.907Z,47.63
2018-11-29T18:30:31.187Z,41.27
2018-11-29T18:33:00.435Z,18.00
2018-11-29T18:35:29.748Z,37.57
2018-11-29T18:37:59.102Z,45.20
2018-11-29T18:40:27.968Z,17.77
2018-11-29T18:42:59.223Z,18.87
2018-11-29T18:45:28.537Z,16.57
2018-11-29T18:47:57.913Z,18.03
2018-11-29T18:50:27.447Z,12.63
2018-11-29T18:52:56.567Z,15.83
2018-11-29T18:55:26.660Z,14.53
2018-11-29T18:57:57.083Z,14.03
2018-11-29T19:00:31.480Z,16.50
2018-11-29T19:03:00.520Z,15.00
2018-11-29T19:05:29.787Z,18.00
2018-11-29T19:07:59.030Z,21.53
2018-11-29T19:10:28.165Z,28.77
2018-11-29T19:13:11.823Z,31.00
2018-11-29T19:15:41.219Z,25.77
2018-11-29T19:18:11.041Z,20.40
2018-11-29T19:20:40.033Z,18.90
2018-11-29T19:23:09.105Z,17.27
2018-11-29T19:25:38.511Z,23.50
2018-11-29T19:28:08.658Z,21.03
2018-11-29T19:30:38.238Z,14.93
2018-11-29T19:33:24.644Z,19.30
2018-11-29T19:35:54.999Z,19.87
2018-11-29T19:38:24.652Z,16.13
2018-11-29T19:40:54.535Z,14.80
2018-11-29T19:43:23.642Z,14.83
2018-11-29T19:45:53.967Z,16.00
2018-11-29T19:48:24.416Z,14.87
2018-11-29T19:50:53.835Z,16.17
2018-11-29T19:53:26.082Z,17.23
2018-11-29T19:55:56.993Z,17.30
2018-11-29T19:58:26.065Z,22.57
2018-11-29T20:00:56.284Z,17.07
2018-11-29T20:03:25.692Z,16.80
2018-11-29T20:05:54.638Z,16.77
2018-11-29T20:08:23.888Z,19.20
2018-11-29T20:10:53.815Z,18.30
2018-11-29T20:13:23.128Z,16.70
2018-11-29T20:15:53.849Z,26.77
2018-11-29T20:18:22.778Z,23.93
2018-11-29T20:20:51.702Z,14.80
2018-11-29T20:23:20.901Z,15.57
2018-11-29T20:25:50.124Z,13.80
2018-11-29T20:28:19.452Z,15.83
2018-11-29T20:30:48.804Z,15.87
2018-11-29T20:33:18.012Z,24.40
2018-11-29T20:35:47.005Z,35.23
2018-11-29T20:38:16.169Z,31.17
2018-11-29T20:40:46.100Z,30.83
2018-11-29T20:43:15.620Z,33.80
2018-11-29T20:45:53.928Z,22.87
2018-11-29T20:48:25.193Z,35.70
2018-11-29T20:50:55.187Z,40.53
2018-11-29T20:53:28.267Z,43.40
2018-11-29T20:55:57.403Z,37.77
2018-11-29T20:58:26.555Z,39.13
2018-11-29T21:00:55.736Z,31.70
2018-11-29T21:03:24.961Z,27.73
2018-11-29T21:05:54.139Z,37.90
2018-11-29T21:08:23.171Z,43.50
2018-11-29T21:10:52.487Z,44.47
2018-11-29T21:13:21.612Z,29.03
2018-11-29T21:15:50.883Z,23.93
2018-11-29T21:18:20.156Z,23.33
2018-11-29T21:20:49.392Z,25.17
2018-11-29T21:23:18.855Z,32.47
2018-11-29T21:25:47.846Z,27.37
2018-11-29T21:28:17.148Z,27.17
2018-11-29T21:30:46.477Z,29.77
2018-11-29T21:33:15.597Z,42.00
2018-11-29T21:35:44.727Z,58.90
2018-11-29T21:38:19.304Z,45.60
2018-11-29T21:40:50.400Z,34.97
2018-11-29T21:43:19.484Z,30.10
2018-11-29T21:45:48.839Z,32.63
2018-11-29T21:48:18.148Z,24.93
2018-11-29T21:50:47.243Z,27.97
2018-11-29T21:53:16.480Z,29.10
2018-11-29T21:55:45.575Z,33.47
2018-11-29T21:58:14.486Z,44.17
2018-11-29T22:00:43.676Z,41.03
2018-11-29T22:03:13.003Z,39.10
2018-11-29T22:05:42.155Z,39.57
2018-11-29T22:08:11.387Z,29.47
2018-11-29T22:10:40.746Z,29.70
2018-11-29T22:13:09.927Z,29.53
2018-11-29T22:15:38.840Z,28.73
2018-11-29T22:18:26.117Z,21.33
2018-11-29T22:20:59.416Z,23.40
2018-11-29T22:23:28.306Z,22.37
2018-11-29T22:25:58.659Z,20.57
2018-11-29T22:28:27.880Z,22.13
2018-11-29T22:30:57.441Z,21.43
2018-11-29T22:33:26.355Z,23.87
2018-11-29T22:35:55.498Z,22.17
2018-11-29T22:38:24.488Z,22.23
2018-11-29T22:40:53.755Z,24.47
2018-11-29T22:43:22.968Z,24.93
2018-11-29T22:45:52.068Z,23.00
2018-11-29T22:48:21.245Z,21.80
2018-11-29T22:50:50.368Z,25.70
2018-11-29T22:53:19.426Z,25.37
2018-11-29T22:55:48.515Z,23.60
2018-11-29T22:58:17.680Z,21.83
2018-11-29T23:00:50.107Z,24.10
2018-11-29T23:03:19.358Z,25.73
2018-11-29T23:05:48.596Z,22.80
2018-11-29T23:08:17.928Z,26.33
2018-11-29T23:10:46.838Z,28.17
2018-11-29T23:13:15.792Z,24.77
2018-11-29T23:15:44.837Z,25.63
2018-11-29T23:18:14.233Z,23.90
2018-11-29T23:20:43.475Z,22.63
2018-11-29T23:23:12.855Z,22.20
2018-11-29T23:25:42.197Z,24.00
2018-11-29T23:28:11.451Z,24.10
2018-11-29T23:30:40.772Z,24.03
2018-11-29T23:33:09.667Z,23.33
2018-11-29T23:35:39.128Z,24.10
2018-11-29T23:38:08.218Z,23.83
2018-11-29T23:40:37.483Z,23.27
2018-11-29T23:43:06.805Z,21.87
2018-11-29T23:45:35.951Z,24.90
2018-11-29T23:48:04.890Z,26.47
2018-11-29T23:50:33.988Z,29.07
2018-11-29T23:53:03.224Z,26.87
2018-11-29T23:55:32.587Z,28.30
2018-11-29T23:58:01.539Z,30.20
